Time;durP1;ratioP1;P1;durP2;ratioP2;P2;SDS_P1;SDS_P2;PMS_P1;PMS_P2;Temp;Humidity;BMP_temperature;BMP_pressure;BME280_temperature;BME280_humidity;BME280_pressure;Samples;Min_cycle;Max_cycle;Signal;HPM_P1;HPM_P2
2021/09/09 00:00:18;;;;;;;7.35;3.25;;;;;;;19.80;50.65;100224.81;5050366;28;20118;-47
2021/09/09 00:02:43;;;;;;;7.15;3.30;;;;;;;19.59;51.33;100223.72;5050409;28;20028;-48
2021/09/09 00:05:09;;;;;;;5.50;3.30;;;;;;;19.93;50.14;100228.97;5050333;28;20029;-48
2021/09/09 00:07:35;;;;;;;7.28;3.30;;;;;;;19.84;50.67;100233.22;5050049;28;20103;-47
2021/09/09 00:10:03;;;;;;;6.70;3.13;;;;;;;19.73;51.00;100233.09;5052659;28;20064;-48
2021/09/09 00:12:29;;;;;;;4.90;3.13;;;;;;;19.67;51.19;100233.25;5054043;28;20029;-46
2021/09/09 00:14:54;;;;;;;8.10;2.90;;;;;;;19.67;51.19;100233.25;5053556;28;20025;-47
2021/09/09 00:17:20;;;;;;;5.90;3.13;;;;;;;19.72;51.31;100228.78;5053783;28;20028;-48
2021/09/09 00:19:45;;;;;;;9.10;3.08;;;;;;;19.59;51.65;100236.38;5054171;28;20385;-49
2021/09/09 00:22:10;;;;;;;5.68;3.00;;;;;;;19.34;52.38;100226.88;5053838;28;20770;-49
2021/09/09 00:24:36;;;;;;;4.53;3.10;;;;;;;19.53;51.66;100227.41;5053904;28;20029;-48
2021/09/09 00:27:01;;;;;;;5.47;3.20;;;;;;;19.56;51.65;100220.72;5052417;28;20021;-48
2021/09/09 00:29:27;;;;;;;7.57;2.95;;;;;;;19.34;52.26;100227.72;5053857;28;20108;-47
2021/09/09 00:31:52;;;;;;;5.05;3.03;;;;;;;19.53;52.00;100230.09;5053541;28;20373;-47
2021/09/09 00:34:18;;;;;;;6.03;3.17;;;;;;;19.71;51.60;100228.97;5053316;28;20024;-48
2021/09/09 00:36:43;;;;;;;6.43;3.15;;;;;;;19.86;50.88;100226.50;5053273;28;20077;-49
2021/09/09 00:39:09;;;;;;;5.03;2.90;;;;;;;19.98;50.58;100226.34;5053157;28;20035;-49
2021/09/09 00:41:34;;;;;;;4.82;3.30;;;;;;;19.69;51.45;100229.22;5053372;28;20017;-46
2021/09/09 00:44:00;;;;;;;5.65;2.83;;;;;;;19.79;51.25;100233.97;5052928;28;20115;-47
2021/09/09 00:46:26;;;;;;;4.38;3.00;;;;;;;19.79;51.08;100230.44;5052810;28;20021;-46
2021/09/09 00:48:51;;;;;;;4.55;3.00;;;;;;;19.71;50.88;100229.78;5052557;28;20477;-48
2021/09/09 00:51:17;;;;;;;5.78;3.00;;;;;;;19.80;50.76;100232.91;5052732;28;20036;-49
2021/09/09 00:53:42;;;;;;;5.45;2.92;;;;;;;19.67;51.25;100234.06;5052729;28;20024;-46
2021/09/09 00:56:11;;;;;;;7.85;3.00;;;;;;;19.62;51.23;100242.09;5052653;28;20435;-46
2021/09/09 00:58:39;;;;;;;4.05;2.83;;;;;;;19.82;51.15;100235.31;5052273;28;20024;-47
2021/09/09 01:01:05;;;;;;;5.25;2.92;;;;;;;19.58;52.28;100227.47;5052461;28;20120;-48
2021/09/09 01:03:30;;;;;;;5.25;3.33;;;;;;;19.85;50.80;100230.25;5052667;28;20095;-46
2021/09/09 01:05:56;;;;;;;4.68;3.30;;;;;;;19.73;51.20;100238.47;5053161;28;20036;-47
2021/09/09 01:08:21;;;;;;;5.75;3.30;;;;;;;20.02;50.52;100235.56;5052546;28;20020;-46
2021/09/09 01:10:46;;;;;;;7.35;3.67;;;;;;;19.76;50.98;100226.34;5051172;28;20067;-48
2021/09/09 01:13:12;;;;;;;6.40;3.33;;;;;;;19.58;51.63;100235.56;5052641;28;20385;-47
2021/09/09 01:15:39;;;;;;;5.97;3.58;;;;;;;19.66;51.35;100237.00;5052607;28;20025;-46
2021/09/09 01:18:22;;;;;;;7.57;4.00;;;;;;;20.05;50.59;100236.97;5052310;28;20381;-47
2021/09/09 01:20:48;;;;;;;7.63;4.63;;;;;;;20.16;49.63;100237.84;5051986;28;20075;-47
2021/09/09 01:23:14;;;;;;;8.15;4.90;;;;;;;19.84;50.71;100235.91;5052517;28;20396;-46
2021/09/09 01:25:39;;;;;;;8.48;5.13;;;;;;;19.87;50.88;100238.91;5051730;28;20086;-47
2021/09/09 01:28:04;;;;;;;7.47;4.93;;;;;;;19.85;51.18;100232.13;5050692;28;20039;-47
2021/09/09 01:30:30;;;;;;;8.68;4.90;;;;;;;19.78;51.15;100236.91;5052196;28;20032;-48
2021/09/09 01:32:56;;;;;;;6.55;4.70;;;;;;;19.69;51.39;100231.94;5052066;28;20033;-49
2021/09/09 01:35:21;;;;;;;9.50;4.55;;;;;;;19.72;51.14;100242.25;5052441;28;20025;-50
2021/09/09 01:37:46;;;;;;;5.90;4.60;;;;;;;19.73;51.74;100234.97;5051616;28;20170;-50
2021/09/09 01:40:12;;;;;;;8.48;4.78;;;;;;;19.53;52.03;100241.72;5052574;28;20029;-50
2021/09/09 01:42:38;;;;;;;7.68;4.22;;;;;;;19.25;52.80;100233.81;5052211;28;20361;-46
2021/09/09 01:45:04;;;;;;;8.18;4.45;;;;;;;19.34;51.82;100241.22;5051639;28;20029;-47
2021/09/09 01:47:29;;;;;;;9.50;4.47;;;;;;;19.46;51.67;100235.69;5052696;28;20021;-46
2021/09/09 01:49:54;;;;;;;12.82;4.63;;;;;;;18.99;52.75;100228.03;5052291;28;20048;-47
2021/09/09 01:52:20;;;;;;;8.23;4.63;;;;;;;18.86;53.09;100233.75;5034209;28;20032;-47
2021/09/09 01:54:45;;;;;;;5.80;4.47;;;;;;;18.87;53.36;100235.41;5052223;28;20067;-46
2021/09/09 01:57:11;;;;;;;6.35;4.30;;;;;;;18.58;53.94;100234.63;5052027;28;20437;-50
2021/09/09 01:59:37;;;;;;;7.15;4.35;;;;;;;18.59;53.84;100236.28;5051741;28;20029;-46
2021/09/09 02:02:02;;;;;;;9.00;4.50;;;;;;;18.76;53.29;100232.50;5051743;28;20507;-48
2021/09/09 02:04:29;;;;;;;8.07;4.57;;;;;;;19.04;52.59;100235.38;5051868;28;20098;-49
2021/09/09 02:06:56;;;;;;;7.75;4.47;;;;;;;19.30;52.14;100236.56;5052152;28;20040;-47
2021/09/09 02:09:21;;;;;;;8.68;4.90;;;;;;;19.45;51.16;100220.56;5051694;28;20048;-50
2021/09/09 02:11:47;;;;;;;7.47;4.50;;;;;;;19.54;51.19;100226.34;5051990;28;20033;-47
2021/09/09 02:14:12;;;;;;;5.80;4.35;;;;;;;19.17;51.86;100218.03;5051867;28;20025;-50
2021/09/09 02:16:38;;;;;;;6.68;5.03;;;;;;;19.04;52.58;100217.31;5051872;28;20028;-48
2021/09/09 02:19:03;;;;;;;6.53;4.47;;;;;;;18.83;53.02;100207.28;5052036;28;20029;-48
2021/09/09 02:21:29;;;;;;;7.65;4.60;;;;;;;18.92;52.75;100217.44;5051677;28;20602;-48
2021/09/09 02:23:54;;;;;;;9.38;4.45;;;;;;;18.90;52.62;100213.31;5051716;28;20028;-47
2021/09/09 02:26:20;;;;;;;5.55;4.28;;;;;;;18.92;52.87;100209.34;5051403;28;20029;-48
2021/09/09 02:28:46;;;;;;;6.00;4.60;;;;;;;18.92;52.65;100209.34;5051677;28;20056;-47
2021/09/09 02:31:11;;;;;;;7.63;4.80;;;;;;;18.93;52.52;100212.84;5050604;28;20025;-47
2021/09/09 02:33:37;;;;;;;5.85;4.40;;;;;;;18.55;53.43;100209.00;5051069;28;20032;-48
2021/09/09 02:36:02;;;;;;;6.22;4.50;;;;;;;18.42;54.09;100209.31;5051294;28;20033;-50
2021/09/09 02:38:28;;;;;;;6.60;4.65;;;;;;;18.30;54.62;100206.69;5051232;28;20029;-50
2021/09/09 02:40:53;;;;;;;8.25;4.82;;;;;;;18.33;54.49;100208.88;5049340;28;20028;-46
2021/09/09 02:43:18;;;;;;;8.73;4.45;;;;;;;18.25;54.65;100206.59;5050817;28;20033;-47
2021/09/09 02:45:44;;;;;;;12.77;4.75;;;;;;;18.28;54.98;100204.25;5051023;28;20029;-48
2021/09/09 02:48:09;;;;;;;11.60;4.35;;;;;;;18.35;54.71;100196.00;5050832;28;20058;-49
2021/09/09 02:50:36;;;;;;;6.05;4.60;;;;;;;18.43;54.65;100198.31;5050949;28;20025;-47
2021/09/09 02:53:01;;;;;;;6.75;4.22;;;;;;;18.79;54.03;100204.25;5051001;28;20039;-48
2021/09/09 02:55:27;;;;;;;5.70;4.20;;;;;;;19.03;52.15;100206.78;5051118;28;20033;-48
2021/09/09 02:57:52;;;;;;;6.45;4.43;;;;;;;18.80;52.83;100205.06;5051002;28;20033;-49
2021/09/09 03:00:18;;;;;;;4.80;4.25;;;;;;;18.79;52.94;100211.50;5050683;28;20374;-47
2021/09/09 03:02:43;;;;;;;7.78;4.50;;;;;;;18.71;53.02;100200.06;5050893;28;20089;-46
2021/09/09 03:05:09;;;;;;;7.60;4.30;;;;;;;18.78;53.65;100201.81;5050346;28;20044;-47
2021/09/09 03:07:34;;;;;;;6.15;4.53;;;;;;;19.06;52.31;100201.72;5050829;28;20037;-47
2021/09/09 03:10:00;;;;;;;9.60;4.50;;;;;;;19.09;52.96;100195.81;5050476;28;20127;-47
2021/09/09 03:12:25;;;;;;;7.88;4.20;;;;;;;19.02;53.44;100202.44;5050648;28;20071;-47
2021/09/09 03:14:51;;;;;;;7.60;4.13;;;;;;;19.17;52.81;100193.75;5050603;28;20412;-47
2021/09/09 03:17:16;;;;;;;7.40;4.50;;;;;;;19.23;52.09;100201.66;5050450;28;20028;-48
2021/09/09 03:19:42;;;;;;;8.60;4.13;;;;;;;19.09;52.53;100179.63;5050853;28;20040;-48
2021/09/09 03:22:07;;;;;;;5.95;4.25;;;;;;;19.20;51.90;100195.97;5050646;28;20032;-47
2021/09/09 03:24:33;;;;;;;6.80;4.40;;;;;;;19.24;52.25;100202.47;5050504;28;20453;-47
2021/09/09 03:26:58;;;;;;;7.10;4.07;;;;;;;19.30;52.08;100210.38;5050278;28;20052;-48
2021/09/09 03:29:24;;;;;;;8.55;4.47;;;;;;;19.45;51.81;100209.75;5050215;28;20460;-47
2021/09/09 03:31:49;;;;;;;6.40;4.32;;;;;;;19.70;51.28;100209.28;5050267;28;20044;-47
2021/09/09 03:34:14;;;;;;;9.65;4.60;;;;;;;19.84;50.65;100208.91;5050435;28;20032;-48
2021/09/09 03:36:40;;;;;;;6.00;4.18;;;;;;;19.93;50.55;100215.47;5050332;28;20090;-49
2021/09/09 03:39:05;;;;;;;6.60;4.40;;;;;;;20.01;50.24;100219.59;5050204;28;20128;-46
2021/09/09 03:41:31;;;;;;;6.28;4.55;;;;;;;20.09;49.98;100202.97;5050482;28;20025;-47
2021/09/09 03:43:56;;;;;;;13.73;5.60;;;;;;;20.20;49.63;100210.09;5052884;28;20441;-49
2021/09/09 03:46:22;;;;;;;7.35;4.75;;;;;;;20.13;49.99;100214.88;5054242;28;20029;-47
2021/09/09 03:48:47;;;;;;;6.97;4.30;;;;;;;19.90;50.35;100213.28;5054295;28;20025;-46
2021/09/09 03:51:13;;;;;;;8.70;4.82;;;;;;;20.05;49.53;100208.06;5054141;28;20499;-49
2021/09/09 03:53:38;;;;;;;10.32;4.45;;;;;;;19.88;50.10;100216.25;5053981;28;20059;-48
2021/09/09 03:56:04;;;;;;;7.95;3.95;;;;;;;20.04;49.86;100214.50;5054331;28;20041;-47
2021/09/09 03:58:29;;;;;;;6.93;4.32;;;;;;;20.13;49.69;100220.28;5053917;28;20035;-48
2021/09/09 04:00:55;;;;;;;5.15;4.05;;;;;;;19.83;50.41;100221.59;5053811;28;20420;-48
2021/09/09 04:03:20;;;;;;;7.35;4.60;;;;;;;19.41;51.37;100227.53;5054526;28;20029;-46
2021/09/09 04:05:46;;;;;;;7.63;4.40;;;;;;;19.53;50.97;100219.31;5053616;28;20025;-48
2021/09/09 04:08:11;;;;;;;7.50;4.05;;;;;;;19.40;51.40;100219.69;5036055;28;20039;-49
2021/09/09 04:10:37;;;;;;;6.13;3.90;;;;;;;19.46;51.73;100218.69;5053231;28;20463;-47
2021/09/09 04:13:03;;;;;;;11.15;4.22;;;;;;;19.52;51.46;100220.38;5053921;28;20090;-49
2021/09/09 04:15:28;;;;;;;8.00;4.50;;;;;;;19.66;50.71;100213.53;5053977;28;20025;-46
2021/09/09 04:17:54;;;;;;;5.97;4.20;;;;;;;19.76;50.70;100209.34;5053824;28;20044;-47
2021/09/09 04:20:19;;;;;;;6.85;4.43;;;;;;;19.91;50.45;100207.66;5053892;28;20111;-47
2021/09/09 04:22:45;;;;;;;11.70;4.70;;;;;;;19.97;50.33;100204.97;5053805;28;20032;-49
2021/09/09 04:25:10;;;;;;;6.65;4.40;;;;;;;19.81;51.16;100209.41;5035544;28;20087;-47
2021/09/09 04:27:36;;;;;;;6.95;4.50;;;;;;;19.61;51.69;100189.19;5053263;28;20037;-46
2021/09/09 04:30:02;;;;;;;11.80;5.00;;;;;;;18.86;53.79;100196.81;5053176;28;20048;-47
2021/09/09 04:32:28;;;;;;;14.60;4.93;;;;;;;19.17;53.14;100188.34;5053095;28;20382;-50
2021/09/09 04:34:53;;;;;;;9.02;4.80;;;;;;;19.30;53.10;100196.88;5052719;28;20396;-47
2021/09/09 04:37:19;;;;;;;6.75;4.55;;;;;;;19.30;53.22;100193.38;5052674;28;20025;-48
2021/09/09 04:39:44;;;;;;;11.48;6.15;;;;;;;19.67;52.24;100201.66;5052662;28;20105;-49
2021/09/09 04:42:10;;;;;;;87.35;58.63;;;;;;;19.59;52.32;100199.44;5052581;28;20025;-49
2021/09/09 04:44:36;;;;;;;10.52;5.10;;;;;;;19.18;53.33;100192.69;5052553;28;20021;-49
2021/09/09 04:47:01;;;;;;;35.95;24.95;;;;;;;19.07;53.81;100197.94;5052420;28;20051;-46
2021/09/09 04:49:27;;;;;;;16.80;7.45;;;;;;;19.06;53.35;100199.00;5052621;28;20024;-46
2021/09/09 04:51:52;;;;;;;6.50;5.32;;;;;;;19.08;53.86;100196.06;5052264;28;20029;-47
2021/09/09 04:54:19;;;;;;;9.20;5.93;;;;;;;19.01;53.82;100193.53;5051566;28;20033;-48
2021/09/09 04:56:44;;;;;;;21.08;13.90;;;;;;;19.51;52.39;100195.28;5052159;28;20067;-49
2021/09/09 04:59:10;;;;;;;12.27;5.10;;;;;;;19.32;52.83;100183.16;5052387;28;20032;-48
2021/09/09 05:01:35;;;;;;;10.07;4.68;;;;;;;19.48;52.31;100186.88;5052306;28;20059;-47
2021/09/09 05:04:01;;;;;;;9.00;4.70;;;;;;;19.62;52.10;100181.91;5052338;28;20079;-49
2021/09/09 05:06:26;;;;;;;10.43;5.38;;;;;;;19.58;51.84;100184.28;5050897;28;20025;-46
2021/09/09 05:08:52;;;;;;;13.50;5.68;;;;;;;19.62;53.46;100188.09;5047522;28;20079;-46
2021/09/09 05:11:17;;;;;;;10.77;6.13;;;;;;;19.91;51.80;100185.19;5038850;28;20429;-47
2021/09/09 05:13:43;;;;;;;11.70;5.32;;;;;;;19.82;51.66;100181.31;5032961;28;20135;-47
2021/09/09 05:16:09;;;;;;;8.40;4.90;;;;;;;19.71;51.96;100197.38;5031868;28;20359;-48
2021/09/09 05:18:34;;;;;;;15.05;10.63;;;;;;;19.67;52.17;100195.47;5031895;28;20529;-50
2021/09/09 05:21:00;;;;;;;9.43;6.20;;;;;;;19.61;52.14;100196.44;5031698;28;20405;-46
2021/09/09 05:23:25;;;;;;;16.42;8.77;;;;;;;19.58;52.57;100199.69;5045850;28;20029;-53
2021/09/09 05:25:51;;;;;;;20.00;9.05;;;;;;;19.66;52.26;100202.72;5040818;28;20523;-50
2021/09/09 05:28:17;;;;;;;10.85;6.07;;;;;;;19.82;51.80;100201.06;5031538;28;20053;-47
2021/09/09 05:30:42;;;;;;;8.80;5.63;;;;;;;20.16;51.83;100208.94;5048585;28;20030;-45
2021/09/09 05:33:08;;;;;;;9.82;4.85;;;;;;;20.36;51.22;100208.34;5051180;28;20067;-38
2021/09/09 05:35:34;;;;;;;8.85;5.13;;;;;;;20.22;51.95;100207.94;5050828;28;20025;-48
2021/09/09 05:37:59;;;;;;;9.18;4.80;;;;;;;20.17;51.94;100205.19;5051129;28;20054;-46
2021/09/09 05:40:25;;;;;;;10.07;4.47;;;;;;;20.21;51.78;100208.19;5050963;28;20021;-47
2021/09/09 05:42:50;;;;;;;11.23;5.10;;;;;;;19.97;52.87;100210.38;5051009;28;20055;-50
2021/09/09 05:45:16;;;;;;;10.50;5.60;;;;;;;19.97;53.05;100197.72;5051138;28;20025;-49
2021/09/09 05:47:41;;;;;;;9.73;5.30;;;;;;;20.18;52.78;100204.13;5044446;28;20429;-49
2021/09/09 05:50:07;;;;;;;11.27;5.00;;;;;;;20.15;52.76;100199.22;5046228;28;20051;-49
2021/09/09 05:52:33;;;;;;;6.90;5.30;;;;;;;20.42;51.66;100203.78;5051033;28;20108;-46
2021/09/09 05:54:58;;;;;;;10.15;4.97;;;;;;;20.42;52.02;100201.09;5050083;28;20052;-46
2021/09/09 05:57:24;;;;;;;10.00;5.25;;;;;;;20.43;51.08;100190.03;5049814;28;20024;-47
2021/09/09 05:59:51;;;;;;;24.65;12.30;;;;;;;20.59;51.21;100199.06;5049832;28;20021;-47
2021/09/09 06:02:17;;;;;;;13.70;9.85;;;;;;;20.67;51.31;100193.19;5049705;28;20472;-46
2021/09/09 06:04:42;;;;;;;9.70;5.95;;;;;;;20.78;50.77;100190.56;5049796;28;20025;-49
2021/09/09 06:07:08;;;;;;;10.48;5.30;;;;;;;20.20;52.01;100185.78;5048745;28;20035;-50
2021/09/09 06:09:33;;;;;;;10.40;5.63;;;;;;;19.84;53.26;100198.94;5049948;28;20045;-46
2021/09/09 06:11:59;;;;;;;9.93;5.55;;;;;;;20.01;52.73;100193.44;5050200;28;20025;-47
2021/09/09 06:14:24;;;;;;;10.45;5.38;;;;;;;20.11;52.51;100193.50;5049705;28;20040;-46
2021/09/09 06:16:50;;;;;;;6.88;4.75;;;;;;;20.18;52.46;100196.03;5049740;28;20025;-47
2021/09/09 06:19:15;;;;;;;9.48;5.43;;;;;;;20.30;52.36;100193.97;5049547;28;20025;-46
2021/09/09 06:21:41;;;;;;;9.70;4.78;;;;;;;20.18;52.66;100196.03;5049269;28;20024;-47
2021/09/09 06:24:07;;;;;;;9.75;5.07;;;;;;;20.43;52.17;100202.72;5049419;28;20025;-48
2021/09/09 06:26:33;;;;;;;9.43;5.45;;;;;;;20.48;52.00;100202.75;5049639;28;20059;-46
2021/09/09 06:28:58;;;;;;;11.02;5.30;;;;;;;20.57;52.15;100206.63;5049331;28;20079;-46
2021/09/09 06:31:24;;;;;;;7.03;4.78;;;;;;;20.49;51.47;100207.91;5049697;28;20344;-47
2021/09/09 06:33:49;;;;;;;10.57;4.75;;;;;;;20.41;51.21;100180.53;5049710;28;20025;-46
2021/09/09 06:36:15;;;;;;;12.05;7.90;;;;;;;20.39;51.39;100204.28;5049374;28;20039;-47
2021/09/09 06:38:40;;;;;;;10.25;5.20;;;;;;;20.31;51.40;100202.88;5049903;28;20048;-46
2021/09/09 06:41:06;;;;;;;7.75;4.85;;;;;;;19.98;52.46;100201.22;5049344;28;20021;-50
2021/09/09 06:43:31;;;;;;;10.65;4.88;;;;;;;19.52;53.76;100210.41;5049623;28;20017;-49
2021/09/09 06:45:56;;;;;;;8.65;4.93;;;;;;;20.20;52.18;100201.97;5049710;28;20017;-47
2021/09/09 06:48:22;;;;;;;12.05;5.20;;;;;;;20.38;52.13;100202.69;5048915;28;20032;-47
2021/09/09 06:50:47;;;;;;;13.07;5.15;;;;;;;20.38;51.94;100197.28;5049153;28;20020;-46
2021/09/09 06:53:13;;;;;;;10.73;5.85;;;;;;;20.75;51.19;100210.00;5048899;28;20471;-49
2021/09/09 06:55:38;;;;;;;10.90;4.82;;;;;;;20.29;52.34;100213.94;5049085;28;20032;-47
2021/09/09 06:58:04;;;;;;;16.27;5.20;;;;;;;20.51;51.67;100213.06;5049122;28;20379;-47
2021/09/09 07:00:29;;;;;;;19.80;5.90;;;;;;;20.69;50.91;100220.81;5049506;28;20051;-47
2021/09/09 07:02:55;;;;;;;8.23;4.60;;;;;;;20.51;50.83;100216.56;5049306;28;20390;-48
2021/09/09 07:05:21;;;;;;;9.82;4.40;;;;;;;20.53;50.85;100221.72;5048976;28;20462;-48
2021/09/09 07:07:46;;;;;;;8.57;4.18;;;;;;;20.55;51.07;100216.88;5048949;28;20103;-47
2021/09/09 07:10:11;;;;;;;5.88;4.50;;;;;;;20.91;50.24;100219.06;5047310;28;20428;-46
2021/09/09 07:12:37;;;;;;;7.82;4.03;;;;;;;21.18;49.49;100225.16;5048580;28;20041;-47
2021/09/09 07:15:05;;;;;;;7.78;4.25;;;;;;;21.20;48.79;100222.22;5049204;28;20025;-48
2021/09/09 07:17:31;;;;;;;7.75;4.60;;;;;;;21.17;49.19;100222.72;5047023;28;20086;-49
2021/09/09 07:19:56;;;;;;;9.25;4.57;;;;;;;20.61;50.37;100223.16;5049233;28;20029;-47
2021/09/09 07:22:22;;;;;;;6.25;4.18;;;;;;;20.44;50.91;100201.63;5048734;28;20082;-47
2021/09/09 07:24:47;;;;;;;7.13;4.10;;;;;;;21.00;49.55;100215.59;5048729;28;20033;-47
2021/09/09 07:27:13;;;;;;;7.35;3.97;;;;;;;21.72;48.57;100217.84;5047326;28;20473;-47
2021/09/09 07:29:38;;;;;;;26.27;15.70;;;;;;;21.47;48.49;100228.31;5048574;28;20195;-47
2021/09/09 07:32:04;;;;;;;10.00;5.55;;;;;;;21.83;48.19;100217.63;5048492;28;20025;-47
2021/09/09 07:34:30;;;;;;;9.60;4.53;;;;;;;21.90;48.06;100222.00;5048228;28;20028;-49
2021/09/09 07:36:55;;;;;;;6.55;4.10;;;;;;;22.28;46.21;100214.50;5048324;28;20040;-46
2021/09/09 07:39:21;;;;;;;12.23;3.60;;;;;;;22.12;46.66;100219.03;5048084;28;20472;-47
2021/09/09 07:41:46;;;;;;;6.82;3.70;;;;;;;22.30;46.77;100215.84;5048807;28;20141;-46
2021/09/09 07:44:12;;;;;;;5.60;3.60;;;;;;;22.31;46.97;100209.31;5049194;28;20037;-47
2021/09/09 07:46:38;;;;;;;6.45;3.95;;;;;;;22.43;45.93;100215.31;5048759;28;20408;-47
2021/09/09 07:49:03;;;;;;;4.90;3.55;;;;;;;23.16;44.52;100222.31;5049165;28;20104;-48
2021/09/09 07:51:29;;;;;;;7.70;3.90;;;;;;;22.76;45.25;100223.16;5047576;28;20091;-46
2021/09/09 07:53:55;;;;;;;6.72;3.25;;;;;;;23.31;44.29;100220.63;5048739;28;20514;-49
2021/09/09 07:56:20;;;;;;;7.72;3.75;;;;;;;23.45;43.58;100218.13;5048927;28;20341;-48
2021/09/09 07:58:49;;;;;;;4.32;3.40;;;;;;;23.74;42.52;100219.09;5048742;28;20021;-49
2021/09/09 08:01:21;;;;;;;4.80;3.38;;;;;;;23.50;43.18;100221.66;5049203;28;20098;-46
2021/09/09 08:03:46;;;;;;;6.38;3.13;;;;;;;23.80;42.55;100218.00;5049325;28;20036;-48
2021/09/09 08:06:12;;;;;;;6.07;3.60;;;;;;;23.86;42.08;100193.53;5049063;28;20029;-46
2021/09/09 08:08:37;;;;;;;6.85;3.47;;;;;;;24.06;42.24;100220.56;5048882;28;20091;-47
2021/09/09 08:11:03;;;;;;;7.45;3.55;;;;;;;24.10;42.25;100215.38;5048774;28;20029;-37
2021/09/09 08:13:28;;;;;;;6.10;3.47;;;;;;;24.10;42.25;100216.19;5048493;28;20088;-37
2021/09/09 08:15:54;;;;;;;5.72;3.15;;;;;;;23.78;42.90;100219.34;5049015;28;20373;-37
2021/09/09 08:18:19;;;;;;;7.50;3.25;;;;;;;23.16;43.72;100218.78;5048326;28;20025;-37
2021/09/09 08:20:54;;;;;;;6.30;3.03;;;;;;;23.73;42.83;100219.38;5048646;28;20033;-38
2021/09/09 08:23:21;;;;;;;6.38;4.82;;;;;;;24.10;42.37;100220.81;5048449;28;20032;-38
2021/09/09 08:25:47;;;;;;;11.43;4.90;;;;;;;24.17;42.46;100222.13;5047404;28;20033;-37
2021/09/09 08:28:12;;;;;;;6.45;3.30;;;;;;;23.95;43.06;100211.69;5047996;28;20408;-37
2021/09/09 08:30:38;;;;;;;5.05;3.28;;;;;;;23.87;43.29;100219.59;5050479;28;20036;-37
2021/09/09 08:33:03;;;;;;;5.75;3.50;;;;;;;22.92;45.13;100203.03;5052153;28;20496;-37
2021/09/09 08:35:29;;;;;;;4.70;3.20;;;;;;;23.54;43.85;100216.47;5051837;28;20025;-38
2021/09/09 08:37:54;;;;;;;5.50;3.65;;;;;;;23.39;44.29;100215.44;5051897;28;20033;-37
2021/09/09 08:40:21;;;;;;;8.82;3.65;;;;;;;23.18;44.73;100211.16;5051789;28;20043;-36
2021/09/09 08:42:47;;;;;;;8.15;3.50;;;;;;;23.62;44.14;100213.97;5051416;28;20065;-37
2021/09/09 08:45:16;;;;;;;6.20;3.42;;;;;;;23.39;43.85;100207.28;5049837;28;20031;-36
2021/09/09 08:47:41;;;;;;;9.02;3.40;;;;;;;23.74;43.41;100204.69;5051562;28;20036;-38
2021/09/09 08:50:08;;;;;;;9.48;3.35;;;;;;;23.62;43.69;100207.75;5050810;28;20025;-36
2021/09/09 08:52:33;;;;;;;11.05;3.00;;;;;;;23.74;43.22;100200.09;5049390;28;20020;-36
2021/09/09 08:54:58;;;;;;;8.77;3.45;;;;;;;24.16;42.42;100198.75;5051133;28;20116;-37
2021/09/09 08:57:24;;;;;;;6.32;3.50;;;;;;;24.28;41.95;100192.97;5051099;28;20412;-37
2021/09/09 08:59:49;;;;;;;15.68;8.30;;;;;;;24.38;41.82;100192.06;5050389;28;20021;-36
2021/09/09 09:02:15;;;;;;;9.48;4.50;;;;;;;24.22;42.13;100193.25;5045736;28;20036;-36
2021/09/09 09:04:40;;;;;;;5.32;3.42;;;;;;;24.63;41.31;100193.78;5049355;28;20029;-36
2021/09/09 09:07:08;;;;;;;5.95;3.22;;;;;;;24.40;41.72;100193.38;5044440;28;20048;-37
2021/09/09 09:09:36;;;;;;;5.07;3.08;;;;;;;24.64;41.63;100183.72;5047318;28;20504;-37
2021/09/09 09:12:08;;;;;;;6.38;3.40;;;;;;;24.79;41.55;100183.56;5049395;28;20130;-35
2021/09/09 09:14:34;;;;;;;9.13;3.30;;;;;;;24.83;40.91;100187.34;5049299;28;20476;-36
2021/09/09 09:17:01;;;;;;;7.20;4.30;;;;;;;24.75;41.47;100185.22;5050938;28;20056;-36
2021/09/09 09:19:28;;;;;;;13.15;9.27;;;;;;;24.88;41.14;100192.69;5050633;28;20078;-37
2021/09/09 09:22:03;;;;;;;6.93;3.45;;;;;;;24.44;42.11;100180.03;5051567;28;20032;-37
2021/09/09 09:24:33;;;;;;;5.72;3.28;;;;;;;25.21;40.92;100179.28;5049392;28;20498;-37
2021/09/09 09:27:07;;;;;;;5.93;3.30;;;;;;;24.90;41.29;100168.75;5050587;28;20044;-37
2021/09/09 09:29:32;;;;;;;6.85;3.40;;;;;;;24.95;41.15;100176.84;5052291;28;20147;-37
2021/09/09 09:32:13;;;;;;;6.47;3.47;;;;;;;25.41;40.72;100177.44;5051247;28;20025;-37
2021/09/09 09:34:39;;;;;;;5.65;3.50;;;;;;;25.13;40.36;100177.19;5050089;28;20032;-37
2021/09/09 09:37:05;;;;;;;7.15;3.03;;;;;;;24.90;40.96;100168.75;5051052;28;20052;-37
2021/09/09 09:39:30;;;;;;;7.82;3.33;;;;;;;25.14;40.27;100167.94;5051529;28;20396;-37
2021/09/09 09:42:00;;;;;;;9.30;3.30;;;;;;;25.30;40.24;100163.13;5049553;28;20124;-37
2021/09/09 09:44:39;;;;;;;6.03;3.38;;;;;;;25.46;39.88;100166.50;5050974;28;20025;-38
2021/09/09 09:47:09;;;;;;;7.68;3.40;;;;;;;25.71;39.64;100157.97;5049377;28;20396;-37
2021/09/09 09:49:37;;;;;;;21.35;4.40;;;;;;;24.97;40.62;100162.94;5050996;28;20086;-37
2021/09/09 09:52:03;;;;;;;42.58;7.25;;;;;;;24.99;41.06;100163.47;5049596;28;20469;-36
2021/09/09 09:54:29;;;;;;;19.13;3.97;;;;;;;25.45;40.70;100162.94;5051435;28;20029;-37
2021/09/09 09:56:56;;;;;;;6.60;3.30;;;;;;;24.97;40.96;100168.41;5050450;28;20025;-36
2021/09/09 09:59:21;;;;;;;6.93;3.53;;;;;;;25.02;41.02;100164.78;5050881;28;20039;-37
2021/09/09 10:01:47;;;;;;;29.73;4.80;;;;;;;25.16;40.76;100165.72;5050911;28;20021;-37
2021/09/09 10:04:17;;;;;;;7.55;3.58;;;;;;;24.93;40.76;100165.44;5051539;28;20536;-37
2021/09/09 10:06:43;;;;;;;8.45;3.35;;;;;;;25.19;40.08;100157.00;5050957;28;20025;-37
2021/09/09 10:09:08;;;;;;;10.18;3.47;;;;;;;25.61;39.44;100160.00;5050727;28;20125;-37
2021/09/09 10:11:34;;;;;;;12.73;4.18;;;;;;;25.46;39.97;100159.13;5056003;28;20043;-38
2021/09/09 10:14:01;;;;;;;60.80;7.28;;;;;;;25.49;40.44;100155.00;5062245;28;20025;-37
2021/09/09 10:16:27;;;;;;;10.18;4.00;;;;;;;25.12;41.71;100159.25;5042972;28;20024;-37
2021/09/09 10:18:53;;;;;;;8.25;4.00;;;;;;;24.81;43.73;100156.03;5055109;28;20025;-36
2021/09/09 10:21:37;;;;;;;7.93;4.30;;;;;;;24.72;44.23;100167.56;5066626;28;20078;-37
2021/09/09 10:24:12;;;;;;;8.10;3.88;;;;;;;24.69;44.49;100159.97;5057176;28;20103;-37
2021/09/09 10:26:38;;;;;;;12.13;4.15;;;;;;;24.83;44.17;100162.00;5058052;28;20458;-37
2021/09/09 10:29:08;;;;;;;9.40;4.13;;;;;;;24.84;44.78;100160.91;5066184;28;20020;-37
2021/09/09 10:31:39;;;;;;;10.45;4.40;;;;;;;24.84;45.11;100150.03;5053756;28;20028;-36
2021/09/09 10:34:09;;;;;;;9.13;4.35;;;;;;;24.64;46.44;100157.31;5063048;28;20100;-36
2021/09/09 10:36:43;;;;;;;9.35;4.20;;;;;;;24.48;46.87;100159.31;5060414;28;20016;-37
2021/09/09 10:39:35;;;;;;;11.38;4.57;;;;;;;24.30;47.29;100155.41;5050281;28;20075;-38
2021/09/09 10:42:39;;;;;;;9.88;4.50;;;;;;;24.08;48.20;100147.69;5031936;28;20112;-37
2021/09/09 10:45:05;;;;;;;5.75;4.03;;;;;;;23.78;49.08;100154.97;5047853;28;20434;-37
2021/09/09 10:47:49;;;;;;;6.57;3.88;;;;;;;23.57;49.98;100162.41;5049919;28;20028;-37
2021/09/09 10:50:15;;;;;;;6.88;4.50;;;;;;;23.66;49.87;100162.63;5048392;28;20485;-38
2021/09/09 10:53:06;;;;;;;6.93;4.22;;;;;;;23.74;50.11;100147.63;5049292;28;20024;-38
2021/09/09 10:55:34;;;;;;;7.25;3.97;;;;;;;23.05;51.88;100146.63;5048909;28;20029;-38
2021/09/09 10:58:24;;;;;;;8.57;4.47;;;;;;;22.94;53.25;100149.34;5049521;28;20071;-38
2021/09/09 11:00:49;;;;;;;6.65;4.45;;;;;;;23.18;51.92;100146.81;5046421;28;20104;-48
2021/09/09 11:03:46;;;;;;;7.47;4.22;;;;;;;22.81;54.01;100145.28;5049575;28;20107;-38
2021/09/09 11:06:15;;;;;;;8.13;4.50;;;;;;;22.90;53.08;100142.81;5049760;28;20107;-38
2021/09/09 11:08:42;;;;;;;7.75;4.35;;;;;;;23.05;53.11;100135.75;5049061;28;20120;-38
2021/09/09 11:11:08;;;;;;;7.65;4.30;;;;;;;22.95;52.91;100133.88;5048236;28;20496;-37
2021/09/09 11:13:39;;;;;;;7.07;4.18;;;;;;;22.84;52.93;100133.88;5048980;28;20061;-37
2021/09/09 11:16:37;;;;;;;9.65;4.28;;;;;;;22.93;53.84;100130.63;5047364;28;20040;-37
2021/09/09 11:19:04;;;;;;;13.25;7.57;;;;;;;22.93;53.57;100138.75;5043425;28;20132;-37
2021/09/09 11:21:31;;;;;;;8.75;5.50;;;;;;;23.02;53.33;100135.19;5048552;28;20017;-38